sensor_id;sensor_type;location;lat;lon;timestamp;pressure;altitude;pressure_sealevel;temperature;humidity
49423;BME280;36998;51.974;20.150;2022-09-17T00:01:47;98806.09;;;10.43;68.63
49423;BME280;36998;51.974;20.150;2022-09-17T00:04:13;98803.59;;;10.41;68.97
49423;BME280;36998;51.974;20.150;2022-09-17T00:06:38;98819.78;;;10.41;68.73
49423;BME280;36998;51.974;20.150;2022-09-17T00:09:06;98814.78;;;10.38;69.21
49423;BME280;36998;51.974;20.150;2022-09-17T00:11:34;98810.59;;;10.36;69.02
49423;BME280;36998;51.974;20.150;2022-09-17T00:14:02;98819.94;;;10.33;69.16
49423;BME280;36998;51.974;20.150;2022-09-17T00:16:37;98825.97;;;10.35;68.98
49423;BME280;36998;51.974;20.150;2022-09-17T00:19:04;98812.69;;;10.34;69.46
49423;BME280;36998;51.974;20.150;2022-09-17T00:21:29;98821.78;;;10.32;69.07
49423;BME280;36998;51.974;20.150;2022-09-17T00:23:57;98819.31;;;10.31;69.19
49423;BME280;36998;51.974;20.150;2022-09-17T00:26:24;98817.19;;;10.26;69.23
49423;BME280;36998;51.974;20.150;2022-09-17T00:28:54;98818.66;;;10.29;69.40
49423;BME280;36998;51.974;20.150;2022-09-17T00:31:21;98818.03;;;10.27;69.28
49423;BME280;36998;51.974;20.150;2022-09-17T00:33:47;98819.25;;;10.24;69.18
49423;BME280;36998;51.974;20.150;2022-09-17T00:36:12;98820.25;;;10.23;69.52
49423;BME280;36998;51.974;20.150;2022-09-17T00:38:38;98819.63;;;10.21;69.40
49423;BME280;36998;51.974;20.150;2022-09-17T00:41:04;98813.41;;;10.21;69.55
49423;BME280;36998;51.974;20.150;2022-09-17T00:43:39;98817.75;;;10.22;69.71
49423;BME280;36998;51.974;20.150;2022-09-17T00:49:06;98821.88;;;10.18;69.67
49423;BME280;36998;51.974;20.150;2022-09-17T00:51:44;98827.47;;;10.16;70.01
49423;BME280;36998;51.974;20.150;2022-09-17T00:54:12;98830.56;;;10.13;69.66
49423;BME280;36998;51.974;20.150;2022-09-17T00:56:40;98834.94;;;10.14;69.96
49423;BME280;36998;51.974;20.150;2022-09-17T00:59:06;98824.16;;;10.14;70.20
49423;BME280;36998;51.974;20.150;2022-09-17T01:01:33;98831.19;;;10.15;70.06
49423;BME280;36998;51.974;20.150;2022-09-17T01:03:58;98831.00;;;10.17;70.00
49423;BME280;36998;51.974;20.150;2022-09-17T01:06:46;98828.28;;;10.17;70.05
49423;BME280;36998;51.974;20.150;2022-09-17T01:15:13;98827.84;;;10.13;69.89
49423;BME280;36998;51.974;20.150;2022-09-17T01:18:21;98824.16;;;10.14;70.06
49423;BME280;36998;51.974;20.150;2022-09-17T01:23:58;98827.41;;;10.09;69.74
49423;BME280;36998;51.974;20.150;2022-09-17T01:26:49;98827.81;;;10.06;69.70
49423;BME280;36998;51.974;20.150;2022-09-17T01:29:46;98827.19;;;10.04;70.23
49423;BME280;36998;51.974;20.150;2022-09-17T01:32:28;98825.72;;;10.02;70.18
49423;BME280;36998;51.974;20.150;2022-09-17T01:35:03;98823.19;;;10.00;69.98
49423;BME280;36998;51.974;20.150;2022-09-17T01:37:42;98823.19;;;10.00;70.28
49423;BME280;36998;51.974;20.150;2022-09-17T01:40:21;98831.28;;;10.00;70.11
49423;BME280;36998;51.974;20.150;2022-09-17T01:43:11;98822.19;;;10.01;70.10
49423;BME280;36998;51.974;20.150;2022-09-17T01:48:19;98818.22;;;9.97;70.06
49423;BME280;36998;51.974;20.150;2022-09-17T01:50:50;98821.47;;;9.93;70.45
49423;BME280;36998;51.974;20.150;2022-09-17T01:53:18;98825.38;;;9.90;70.24
49423;BME280;36998;51.974;20.150;2022-09-17T01:55:47;98815.63;;;9.89;70.55
49423;BME280;36998;51.974;20.150;2022-09-17T01:58:21;98822.69;;;9.90;70.41
49423;BME280;36998;51.974;20.150;2022-09-17T02:00:56;98820.66;;;9.92;70.83
49423;BME280;36998;51.974;20.150;2022-09-17T02:03:35;98825.22;;;9.92;70.92
49423;BME280;36998;51.974;20.150;2022-09-17T02:06:14;98817.94;;;9.92;71.10
49423;BME280;36998;51.974;20.150;2022-09-17T02:08:49;98816.09;;;9.93;70.85
49423;BME280;36998;51.974;20.150;2022-09-17T02:11:17;98826.03;;;9.92;70.80
49423;BME280;36998;51.974;20.150;2022-09-17T02:13:46;98813.59;;;9.91;71.12
49423;BME280;36998;51.974;20.150;2022-09-17T02:16:22;98817.75;;;9.94;71.19
49423;BME280;36998;51.974;20.150;2022-09-17T02:21:43;98811.91;;;9.90;70.96
49423;BME280;36998;51.974;20.150;2022-09-17T02:24:16;98816.69;;;9.88;70.97
49423;BME280;36998;51.974;20.150;2022-09-17T02:26:57;98817.50;;;9.89;71.46
49423;BME280;36998;51.974;20.150;2022-09-17T02:29:32;98815.19;;;9.85;71.10
49423;BME280;36998;51.974;20.150;2022-09-17T02:31:59;98808.16;;;9.84;71.30
49423;BME280;36998;51.974;20.150;2022-09-17T02:34:26;98813.72;;;9.83;71.23
49423;BME280;36998;51.974;20.150;2022-09-17T02:36:53;98818.28;;;9.82;71.01
49423;BME280;36998;51.974;20.150;2022-09-17T02:39:19;98823.69;;;9.82;71.14
49423;BME280;36998;51.974;20.150;2022-09-17T02:50:13;98806.59;;;9.75;71.07
49423;BME280;36998;51.974;20.150;2022-09-17T02:55:19;98801.59;;;9.72;71.20
49423;BME280;36998;51.974;20.150;2022-09-17T02:58:01;98810.13;;;9.76;71.25
49423;BME280;36998;51.974;20.150;2022-09-17T03:00:30;98815.53;;;9.76;71.62
49423;BME280;36998;51.974;20.150;2022-09-17T03:03:07;98811.78;;;9.77;71.43
49423;BME280;36998;51.974;20.150;2022-09-17T03:05:35;98810.97;;;9.76;71.97
49423;BME280;36998;51.974;20.150;2022-09-17T03:08:02;98816.19;;;9.78;71.84
49423;BME280;36998;51.974;20.150;2022-09-17T03:10:28;98813.66;;;9.76;71.82
49423;BME280;36998;51.974;20.150;2022-09-17T03:12:55;98808.09;;;9.78;71.68
49423;BME280;36998;51.974;20.150;2022-09-17T03:15:20;98814.69;;;9.75;71.87
49423;BME280;36998;51.974;20.150;2022-09-17T03:17:46;98805.13;;;9.73;71.44
49423;BME280;36998;51.974;20.150;2022-09-17T03:20:11;98811.75;;;9.70;71.64
49423;BME280;36998;51.974;20.150;2022-09-17T03:22:36;98806.16;;;9.72;72.15
49423;BME280;36998;51.974;20.150;2022-09-17T03:25:02;98810.31;;;9.74;72.17
49423;BME280;36998;51.974;20.150;2022-09-17T03:27:28;98807.19;;;9.71;71.96
49423;BME280;36998;51.974;20.150;2022-09-17T03:29:53;98801.78;;;9.71;72.16
49423;BME280;36998;51.974;20.150;2022-09-17T03:32:18;98803.84;;;9.69;72.18
49423;BME280;36998;51.974;20.150;2022-09-17T03:34:44;98805.72;;;9.68;72.08
49423;BME280;36998;51.974;20.150;2022-09-17T03:37:11;98802.59;;;9.65;72.26
49423;BME280;36998;51.974;20.150;2022-09-17T03:39:37;98801.72;;;9.64;71.67
49423;BME280;36998;51.974;20.150;2022-09-17T03:42:03;98803.59;;;9.64;72.04
49423;BME280;36998;51.974;20.150;2022-09-17T03:44:28;98804.63;;;9.63;71.86
49423;BME280;36998;51.974;20.150;2022-09-17T03:46:53;98805.66;;;9.61;72.28
49423;BME280;36998;51.974;20.150;2022-09-17T03:49:19;98797.09;;;9.58;72.29
49423;BME280;36998;51.974;20.150;2022-09-17T03:51:44;98796.28;;;9.57;72.34
49423;BME280;36998;51.974;20.150;2022-09-17T03:54:10;98798.34;;;9.55;72.48
49423;BME280;36998;51.974;20.150;2022-09-17T03:56:35;98801.22;;;9.54;72.38
49423;BME280;36998;51.974;20.150;2022-09-17T03:59:01;98795.00;;;9.53;72.06
49423;BME280;36998;51.974;20.150;2022-09-17T04:01:27;98790.66;;;9.52;72.45
49423;BME280;36998;51.974;20.150;2022-09-17T04:03:53;98795.22;;;9.52;72.49
49423;BME280;36998;51.974;20.150;2022-09-17T04:06:19;98792.69;;;9.50;72.18
49423;BME280;36998;51.974;20.150;2022-09-17T04:08:45;98791.03;;;9.49;72.27
49423;BME280;36998;51.974;20.150;2022-09-17T04:11:10;98793.34;;;9.52;72.60
49423;BME280;36998;51.974;20.150;2022-09-17T04:13:36;98792.69;;;9.50;72.61
49423;BME280;36998;51.974;20.150;2022-09-17T04:16:02;98788.97;;;9.51;72.64
49423;BME280;36998;51.974;20.150;2022-09-17T04:18:27;98797.03;;;9.51;72.37
49423;BME280;36998;51.974;20.150;2022-09-17T04:20:52;98790.44;;;9.54;72.37
49423;BME280;36998;51.974;20.150;2022-09-17T04:23:18;98800.00;;;9.56;72.46
49423;BME280;36998;51.974;20.150;2022-09-17T04:25:44;98801.66;;;9.57;72.36
49423;BME280;36998;51.974;20.150;2022-09-17T04:28:09;98805.66;;;9.61;72.21
49423;BME280;36998;51.974;20.150;2022-09-17T04:30:35;98797.19;;;9.65;72.27
49423;BME280;36998;51.974;20.150;2022-09-17T04:33:02;98799.47;;;9.68;72.27
49423;BME280;36998;51.974;20.150;2022-09-17T04:35:27;98795.56;;;9.70;72.51
49423;BME280;36998;51.974;20.150;2022-09-17T04:37:54;98791.06;;;9.77;72.39
49423;BME280;36998;51.974;20.150;2022-09-17T04:40:21;98793.81;;;9.84;72.42
49423;BME280;36998;51.974;20.150;2022-09-17T04:42:47;98801.78;;;9.92;72.60
49423;BME280;36998;51.974;20.150;2022-09-17T04:45:12;98797.50;;;10.04;72.43
49423;BME280;36998;51.974;20.150;2022-09-17T04:47:39;98806.75;;;10.23;72.26
49423;BME280;36998;51.974;20.150;2022-09-17T04:50:05;98799.03;;;10.42;72.20
49423;BME280;36998;51.974;20.150;2022-09-17T04:52:31;98803.91;;;10.60;71.93
49423;BME280;36998;51.974;20.150;2022-09-17T04:54:56;98805.88;;;10.79;71.49
49423;BME280;36998;51.974;20.150;2022-09-17T04:57:22;98803.84;;;10.94;71.46
49423;BME280;36998;51.974;20.150;2022-09-17T04:59:50;98804.53;;;11.10;71.00
49423;BME280;36998;51.974;20.150;2022-09-17T05:02:15;98810.16;;;11.21;70.55
49423;BME280;36998;51.974;20.150;2022-09-17T05:04:41;98807.72;;;11.33;70.36
49423;BME280;36998;51.974;20.150;2022-09-17T05:07:06;98799.44;;;11.41;70.14
49423;BME280;36998;51.974;20.150;2022-09-17T05:09:32;98810.03;;;11.49;69.76
49423;BME280;36998;51.974;20.150;2022-09-17T05:11:57;98802.34;;;11.60;69.58
49423;BME280;36998;51.974;20.150;2022-09-17T05:14:23;98805.06;;;11.66;69.16
49423;BME280;36998;51.974;20.150;2022-09-17T05:16:48;98804.88;;;11.81;69.09
49423;BME280;36998;51.974;20.150;2022-09-17T05:19:14;98804.09;;;11.94;68.46
49423;BME280;36998;51.974;20.150;2022-09-17T05:21:39;98787.84;;;12.01;68.27
49423;BME280;36998;51.974;20.150;2022-09-17T05:24:04;98808.03;;;12.05;67.81
49423;BME280;36998;51.974;20.150;2022-09-17T05:26:30;98802.84;;;12.10;67.80
49423;BME280;36998;51.974;20.150;2022-09-17T05:28:55;98797.19;;;12.18;67.24
49423;BME280;36998;51.974;20.150;2022-09-17T05:31:21;98800.09;;;12.30;67.02
49423;BME280;36998;51.974;20.150;2022-09-17T05:33:46;98793.84;;;12.43;66.72
49423;BME280;36998;51.974;20.150;2022-09-17T05:36:12;98801.06;;;12.55;66.41
49423;BME280;36998;51.974;20.150;2022-09-17T05:38:37;98800.03;;;12.63;65.95
49423;BME280;36998;51.974;20.150;2022-09-17T05:41:04;98790.44;;;12.67;65.41
49423;BME280;36998;51.974;20.150;2022-09-17T05:43:30;98798.97;;;12.71;65.60
49423;BME280;36998;51.974;20.150;2022-09-17T05:46:02;98788.50;;;12.81;64.75
49423;BME280;36998;51.974;20.150;2022-09-17T05:48:28;98793.13;;;12.67;65.12
49423;BME280;36998;51.974;20.150;2022-09-17T05:50:54;98801.50;;;12.52;65.60
49423;BME280;36998;51.974;20.150;2022-09-17T05:53:20;98794.44;;;12.45;66.24
49423;BME280;36998;51.974;20.150;2022-09-17T05:55:45;98785.91;;;12.48;65.99
49423;BME280;36998;51.974;20.150;2022-09-17T05:58:16;98786.31;;;12.51;66.20
49423;BME280;36998;51.974;20.150;2022-09-17T06:00:43;98783.56;;;12.64;65.76
49423;BME280;36998;51.974;20.150;2022-09-17T06:03:10;98781.63;;;12.78;64.91
49423;BME280;36998;51.974;20.150;2022-09-17T06:05:36;98773.47;;;12.92;64.66
49423;BME280;36998;51.974;20.150;2022-09-17T06:08:02;98783.41;;;12.98;64.47
49423;BME280;36998;51.974;20.150;2022-09-17T06:10:27;98793.88;;;12.94;64.21
49423;BME280;36998;51.974;20.150;2022-09-17T06:12:57;98778.84;;;12.98;64.07
49423;BME280;36998;51.974;20.150;2022-09-17T06:15:24;98776.53;;;13.02;63.78
49423;BME280;36998;51.974;20.150;2022-09-17T06:17:50;98786.75;;;13.00;63.40
49423;BME280;36998;51.974;20.150;2022-09-17T06:20:15;98781.72;;;13.03;63.54
49423;BME280;36998;51.974;20.150;2022-09-17T06:22:41;98789.63;;;13.11;63.46
49423;BME280;36998;51.974;20.150;2022-09-17T06:25:07;98789.47;;;13.00;63.45
49423;BME280;36998;51.974;20.150;2022-09-17T06:27:33;98782.34;;;13.12;62.99
49423;BME280;36998;51.974;20.150;2022-09-17T06:29:59;98784.56;;;13.28;62.83
49423;BME280;36998;51.974;20.150;2022-09-17T06:32:25;98778.75;;;13.25;62.85
49423;BME280;36998;51.974;20.150;2022-09-17T06:34:51;98781.53;;;13.43;62.54
49423;BME280;36998;51.974;20.150;2022-09-17T06:37:16;98774.31;;;13.62;62.29
49423;BME280;36998;51.974;20.150;2022-09-17T06:39:42;98789.84;;;13.80;61.74
49423;BME280;36998;51.974;20.150;2022-09-17T06:42:07;98779.59;;;13.82;61.60
49423;BME280;36998;51.974;20.150;2022-09-17T06:44:33;98777.00;;;13.94;61.24
49423;BME280;36998;51.974;20.150;2022-09-17T06:46:58;98786.09;;;13.81;61.62
49423;BME280;36998;51.974;20.150;2022-09-17T06:49:24;98794.91;;;13.70;61.56
49423;BME280;36998;51.974;20.150;2022-09-17T06:51:49;98766.66;;;13.84;61.59
49423;BME280;36998;51.974;20.150;2022-09-17T06:54:15;98763.84;;;14.16;60.85
49423;BME280;36998;51.974;20.150;2022-09-17T06:56:41;98775.34;;;14.36;60.65
49423;BME280;36998;51.974;20.150;2022-09-17T06:59:07;98780.44;;;14.51;60.15
49423;BME280;36998;51.974;20.150;2022-09-17T07:01:32;98788.75;;;14.56;59.71
49423;BME280;36998;51.974;20.150;2022-09-17T07:03:57;98775.22;;;14.49;59.84
49423;BME280;36998;51.974;20.150;2022-09-17T07:06:23;98775.88;;;14.45;59.69
49423;BME280;36998;51.974;20.150;2022-09-17T07:08:49;98790.91;;;14.47;59.94
49423;BME280;36998;51.974;20.150;2022-09-17T07:11:14;98793.94;;;14.58;59.57
49423;BME280;36998;51.974;20.150;2022-09-17T07:13:42;98801.22;;;14.64;59.39
49423;BME280;36998;51.974;20.150;2022-09-17T07:16:08;98803.03;;;14.70;59.52
49423;BME280;36998;51.974;20.150;2022-09-17T07:18:34;98806.94;;;14.74;59.35
49423;BME280;36998;51.974;20.150;2022-09-17T07:21:04;98819.41;;;14.63;59.77
49423;BME280;36998;51.974;20.150;2022-09-17T07:23:32;98810.03;;;14.59;59.68
49423;BME280;36998;51.974;20.150;2022-09-17T07:25:59;98824.75;;;14.70;59.60
49423;BME280;36998;51.974;20.150;2022-09-17T07:28:27;98803.53;;;14.60;59.62
49423;BME280;36998;51.974;20.150;2022-09-17T07:30:53;98808.53;;;14.63;59.91
49423;BME280;36998;51.974;20.150;2022-09-17T07:33:25;98817.59;;;14.75;59.66
49423;BME280;36998;51.974;20.150;2022-09-17T07:35:55;98806.25;;;14.97;59.26
49423;BME280;36998;51.974;20.150;2022-09-17T07:38:21;98804.34;;;14.97;58.79
49423;BME280;36998;51.974;20.150;2022-09-17T07:40:57;98818.72;;;15.05;59.02
49423;BME280;36998;51.974;20.150;2022-09-17T07:43:27;98803.38;;;15.10;58.85
49423;BME280;36998;51.974;20.150;2022-09-17T07:45:53;98809.78;;;15.16;58.62
49423;BME280;36998;51.974;20.150;2022-09-17T07:48:19;98802.59;;;15.21;58.83
49423;BME280;36998;51.974;20.150;2022-09-17T07:50:46;98807.06;;;15.16;58.96
49423;BME280;36998;51.974;20.150;2022-09-17T07:53:12;98806.25;;;15.15;58.42
49423;BME280;36998;51.974;20.150;2022-09-17T07:55:37;98814.28;;;15.40;58.29
49423;BME280;36998;51.974;20.150;2022-09-17T07:58:03;98806.22;;;15.34;58.07
49423;BME280;36998;51.974;20.150;2022-09-17T08:00:29;98806.06;;;15.29;58.32
49423;BME280;36998;51.974;20.150;2022-09-17T08:02:55;98803.31;;;15.47;58.14
49423;BME280;36998;51.974;20.150;2022-09-17T08:05:22;98810.03;;;15.44;58.09
49423;BME280;36998;51.974;20.150;2022-09-17T08:07:49;98802.16;;;15.06;58.69
49423;BME280;36998;51.974;20.150;2022-09-17T08:10:15;98810.78;;;15.03;58.83
49423;BME280;36998;51.974;20.150;2022-09-17T08:12:46;98817.19;;;15.09;58.72
49423;BME280;36998;51.974;20.150;2022-09-17T08:15:13;98835.03;;;15.05;58.90
49423;BME280;36998;51.974;20.150;2022-09-17T08:17:42;98828.53;;;15.06;59.05
49423;BME280;36998;51.974;20.150;2022-09-17T08:20:08;98835.63;;;15.07;59.04
49423;BME280;36998;51.974;20.150;2022-09-17T08:22:33;98841.00;;;14.95;59.11
49423;BME280;36998;51.974;20.150;2022-09-17T08:24:59;98852.41;;;14.85;59.30
49423;BME280;36998;51.974;20.150;2022-09-17T08:27:25;98847.25;;;14.77;59.70
49423;BME280;36998;51.974;20.150;2022-09-17T08:29:50;98849.31;;;14.82;59.65
49423;BME280;36998;51.974;20.150;2022-09-17T08:32:15;98840.09;;;14.83;59.66
49423;BME280;36998;51.974;20.150;2022-09-17T08:34:41;98837.75;;;14.86;59.41
49423;BME280;36998;51.974;20.150;2022-09-17T08:37:06;98844.69;;;15.01;59.33
49423;BME280;36998;51.974;20.150;2022-09-17T08:39:32;98837.44;;;15.13;59.26
49423;BME280;36998;51.974;20.150;2022-09-17T08:42:06;98836.91;;;15.22;59.09
49423;BME280;36998;51.974;20.150;2022-09-17T08:44:45;98835.38;;;15.27;58.76
49423;BME280;36998;51.974;20.150;2022-09-17T08:49:56;98834.00;;;15.36;58.59
49423;BME280;36998;51.974;20.150;2022-09-17T08:52:42;98840.88;;;15.38;59.05
49423;BME280;36998;51.974;20.150;2022-09-17T09:03:51;98845.91;;;14.86;61.14
49423;BME280;36998;51.974;20.150;2022-09-17T09:06:30;98854.19;;;15.28;60.44
49423;BME280;36998;51.974;20.150;2022-09-17T09:09:03;98851.56;;;15.70;59.60
49423;BME280;36998;51.974;20.150;2022-09-17T09:11:29;98852.72;;;16.04;58.88
49423;BME280;36998;51.974;20.150;2022-09-17T09:14:17;98829.06;;;16.40;58.62
49423;BME280;36998;51.974;20.150;2022-09-17T09:16:45;98842.59;;;16.58;57.76
49423;BME280;36998;51.974;20.150;2022-09-17T09:19:20;98836.91;;;16.72;57.15
49423;BME280;36998;51.974;20.150;2022-09-17T09:22:01;98839.22;;;17.15;56.50
49423;BME280;36998;51.974;20.150;2022-09-17T09:27:16;98838.72;;;17.87;54.76
49423;BME280;36998;51.974;20.150;2022-09-17T09:29:52;98831.00;;;17.84;54.88
49423;BME280;36998;51.974;20.150;2022-09-17T09:32:56;98821.34;;;18.27;54.02
49423;BME280;36998;51.974;20.150;2022-09-17T09:35:24;98826.16;;;18.03;53.39
49423;BME280;36998;51.974;20.150;2022-09-17T09:37:56;98819.78;;;17.69;53.21
49423;BME280;36998;51.974;20.150;2022-09-17T09:40:36;98836.53;;;17.44;54.08
49423;BME280;36998;51.974;20.150;2022-09-17T09:43:37;98830.25;;;17.43;54.07
49423;BME280;36998;51.974;20.150;2022-09-17T09:46:44;98833.34;;;17.64;53.37
49423;BME280;36998;51.974;20.150;2022-09-17T09:50:16;98827.25;;;17.45;53.71
49423;BME280;36998;51.974;20.150;2022-09-17T09:53:11;98824.34;;;17.23;53.04
49423;BME280;36998;51.974;20.150;2022-09-17T09:58:04;98811.66;;;18.02;52.06
49423;BME280;36998;51.974;20.150;2022-09-17T10:00:38;98823.47;;;18.76;50.64
49423;BME280;36998;51.974;20.150;2022-09-17T10:03:25;98813.72;;;18.46;50.85
49423;BME280;36998;51.974;20.150;2022-09-17T10:05:59;98817.03;;;17.97;51.56
49423;BME280;36998;51.974;20.150;2022-09-17T10:08:28;98818.97;;;17.40;51.96
49423;BME280;36998;51.974;20.150;2022-09-17T10:11:08;98839.84;;;16.94;52.49
49423;BME280;36998;51.974;20.150;2022-09-17T10:13:41;98850.53;;;16.36;53.40
49423;BME280;36998;51.974;20.150;2022-09-17T10:16:20;98850.81;;;15.93;54.50
49423;BME280;36998;51.974;20.150;2022-09-17T10:18:47;98861.66;;;15.33;56.98
49423;BME280;36998;51.974;20.150;2022-09-17T10:21:29;98859.66;;;14.73;58.99
49423;BME280;36998;51.974;20.150;2022-09-17T10:23:55;98863.41;;;14.47;60.12
49423;BME280;36998;51.974;20.150;2022-09-17T10:26:24;98872.19;;;14.24;61.36
49423;BME280;36998;51.974;20.150;2022-09-17T10:28:55;98878.22;;;14.01;62.20
49423;BME280;36998;51.974;20.150;2022-09-17T10:31:21;98884.50;;;13.95;62.78
49423;BME280;36998;51.974;20.150;2022-09-17T10:33:55;98878.84;;;14.03;63.64
49423;BME280;36998;51.974;20.150;2022-09-17T10:36:36;98876.06;;;14.35;63.39
49423;BME280;36998;51.974;20.150;2022-09-17T10:39:33;98883.78;;;14.81;63.12
49423;BME280;36998;51.974;20.150;2022-09-17T10:44:37;98878.09;;;16.28;59.57
49423;BME280;36998;51.974;20.150;2022-09-17T10:47:15;98891.22;;;16.85;58.73
49423;BME280;36998;51.974;20.150;2022-09-17T10:49:43;98901.28;;;17.48;57.61
49423;BME280;36998;51.974;20.150;2022-09-17T10:52:28;98890.34;;;17.60;56.58
49423;BME280;36998;51.974;20.150;2022-09-17T10:54:59;98887.41;;;17.50;56.32
49423;BME280;36998;51.974;20.150;2022-09-17T11:00:20;98881.41;;;17.76;54.73
49423;BME280;36998;51.974;20.150;2022-09-17T11:05:53;98862.44;;;18.49;52.68
49423;BME280;36998;51.974;20.150;2022-09-17T11:08:28;98867.69;;;18.89;51.25
49423;BME280;36998;51.974;20.150;2022-09-17T11:11:08;98861.97;;;19.30;50.63
49423;BME280;36998;51.974;20.150;2022-09-17T11:14:07;98871.19;;;19.24;49.90
49423;BME280;36998;51.974;20.150;2022-09-17T11:16:50;98862.25;;;19.11;49.74
49423;BME280;36998;51.974;20.150;2022-09-17T11:21:53;98853.47;;;18.87;49.71
49423;BME280;36998;51.974;20.150;2022-09-17T11:27:28;98852.97;;;18.74;50.24
49423;BME280;36998;51.974;20.150;2022-09-17T11:30:03;98854.31;;;19.10;49.39
49423;BME280;36998;51.974;20.150;2022-09-17T11:35:10;98867.09;;;19.70;48.39
49423;BME280;36998;51.974;20.150;2022-09-17T11:37:45;98863.59;;;20.34;47.20
49423;BME280;36998;51.974;20.150;2022-09-17T11:43:20;98871.69;;;20.88;45.95
49423;BME280;36998;51.974;20.150;2022-09-17T11:45:56;98870.81;;;20.83;45.77
49423;BME280;36998;51.974;20.150;2022-09-17T11:48:28;98858.72;;;20.78;45.88
49423;BME280;36998;51.974;20.150;2022-09-17T11:51:35;98862.06;;;20.48;45.93
49423;BME280;36998;51.974;20.150;2022-09-17T11:57:10;98868.44;;;19.24;47.47
49423;BME280;36998;51.974;20.150;2022-09-17T12:00:00;98853.38;;;18.82;48.30
49423;BME280;36998;51.974;20.150;2022-09-17T12:02:44;98852.41;;;18.55;48.73
49423;BME280;36998;51.974;20.150;2022-09-17T12:13:17;98864.91;;;18.17;49.88
49423;BME280;36998;51.974;20.150;2022-09-17T12:15:47;98870.69;;;18.04;49.85
49423;BME280;36998;51.974;20.150;2022-09-17T12:20:59;98865.59;;;17.78;50.63
49423;BME280;36998;51.974;20.150;2022-09-17T12:24:17;98863.91;;;17.49;50.93
49423;BME280;36998;51.974;20.150;2022-09-17T12:34:53;98845.25;;;17.86;50.75
49423;BME280;36998;51.974;20.150;2022-09-17T12:42:52;98834.63;;;18.18;50.37
49423;BME280;36998;51.974;20.150;2022-09-17T12:45:39;98845.94;;;18.27;50.08
49423;BME280;36998;51.974;20.150;2022-09-17T12:51:06;98859.94;;;18.14;50.62
49423;BME280;36998;51.974;20.150;2022-09-17T12:53:36;98845.44;;;17.96;51.30
49423;BME280;36998;51.974;20.150;2022-09-17T12:56:22;98844.19;;;18.04;51.29
49423;BME280;36998;51.974;20.150;2022-09-17T12:59:02;98843.75;;;18.63;50.42
49423;BME280;36998;51.974;20.150;2022-09-17T13:01:45;98846.09;;;19.10;49.47
49423;BME280;36998;51.974;20.150;2022-09-17T13:10:00;98839.38;;;18.79;50.02
49423;BME280;36998;51.974;20.150;2022-09-17T13:12:36;98845.25;;;18.54;50.81
49423;BME280;36998;51.974;20.150;2022-09-17T13:17:53;98850.16;;;18.18;51.58
49423;BME280;36998;51.974;20.150;2022-09-17T13:20:25;98849.81;;;17.97;52.12
49423;BME280;36998;51.974;20.150;2022-09-17T13:22:54;98856.69;;;17.71;52.38
49423;BME280;36998;51.974;20.150;2022-09-17T13:25:21;98859.22;;;17.61;52.76
49423;BME280;36998;51.974;20.150;2022-09-17T13:27:48;98868.59;;;17.37;53.02
49423;BME280;36998;51.974;20.150;2022-09-17T13:30:16;98866.16;;;17.12;53.96
49423;BME280;36998;51.974;20.150;2022-09-17T13:32:49;98867.44;;;17.09;53.60
49423;BME280;36998;51.974;20.150;2022-09-17T13:37:42;98871.75;;;16.93;54.45
49423;BME280;36998;51.974;20.150;2022-09-17T13:42:52;98863.47;;;16.88;54.76
49423;BME280;36998;51.974;20.150;2022-09-17T13:45:23;98864.03;;;17.02;54.79
49423;BME280;36998;51.974;20.150;2022-09-17T13:50:26;98854.34;;;17.35;54.41
49423;BME280;36998;51.974;20.150;2022-09-17T13:52:54;98847.06;;;17.69;53.89
49423;BME280;36998;51.974;20.150;2022-09-17T13:55:33;98850.63;;;17.98;53.28
49423;BME280;36998;51.974;20.150;2022-09-17T13:57:59;98847.94;;;18.32;52.88
49423;BME280;36998;51.974;20.150;2022-09-17T14:05:56;98836.31;;;19.85;49.50
49423;BME280;36998;51.974;20.150;2022-09-17T14:22:12;98842.44;;;17.81;52.80
49423;BME280;36998;51.974;20.150;2022-09-17T14:27:20;98835.75;;;18.06;52.64
49423;BME280;36998;51.974;20.150;2022-09-17T14:32:43;98842.09;;;17.77;53.26
49423;BME280;36998;51.974;20.150;2022-09-17T14:35:25;98836.84;;;17.76;53.24
49423;BME280;36998;51.974;20.150;2022-09-17T14:37:57;98832.66;;;17.85;53.45
49423;BME280;36998;51.974;20.150;2022-09-17T14:40:25;98838.41;;;18.00;53.38
49423;BME280;36998;51.974;20.150;2022-09-17T14:42:56;98834.78;;;18.12;53.22
49423;BME280;36998;51.974;20.150;2022-09-17T14:45:31;98837.25;;;18.13;53.21
49423;BME280;36998;51.974;20.150;2022-09-17T14:48:17;98835.44;;;18.19;53.16
49423;BME280;36998;51.974;20.150;2022-09-17T14:50:44;98838.00;;;18.25;52.75
49423;BME280;36998;51.974;20.150;2022-09-17T14:53:18;98834.03;;;18.16;53.09
49423;BME280;36998;51.974;20.150;2022-09-17T14:55:46;98832.94;;;18.00;53.65
49423;BME280;36998;51.974;20.150;2022-09-17T14:58:42;98828.06;;;18.02;53.47
49423;BME280;36998;51.974;20.150;2022-09-17T15:01:28;98827.13;;;17.97;53.90
49423;BME280;36998;51.974;20.150;2022-09-17T15:06:39;98818.19;;;18.01;53.63
49423;BME280;36998;51.974;20.150;2022-09-17T15:09:05;98820.09;;;18.18;53.29
49423;BME280;36998;51.974;20.150;2022-09-17T15:11:40;98814.31;;;18.31;52.97
49423;BME280;36998;51.974;20.150;2022-09-17T15:14:15;98806.19;;;18.36;52.85
49423;BME280;36998;51.974;20.150;2022-09-17T15:16:47;98798.13;;;18.46;52.38
49423;BME280;36998;51.974;20.150;2022-09-17T15:19:20;98791.31;;;18.66;52.30
49423;BME280;36998;51.974;20.150;2022-09-17T15:21:46;98786.50;;;18.73;51.83
49423;BME280;36998;51.974;20.150;2022-09-17T15:24:36;98796.84;;;18.71;52.22
49423;BME280;36998;51.974;20.150;2022-09-17T15:27:13;98793.16;;;18.77;51.93
49423;BME280;36998;51.974;20.150;2022-09-17T15:29:45;98801.09;;;18.79;52.15
49423;BME280;36998;51.974;20.150;2022-09-17T15:32:12;98803.53;;;18.97;51.69